Northglenn, Colorado
Current Conditions -  °F | °C
As of 1:15 AM on Sunday 21 Dec 2014 (Local Time) from KBJC Reporting Station
Clear Clear  
Wind Chill: 29°   Ceiling: Unl
Heat Index: 36°   Visibility: 10mi
Dew Point: 19°   Wind: 8mph
Humidity: 52%   Direction: 260°W
Pressure: 29.87"   Gusts: NA
Location:  39.91°N, 104.98°W
Report Text: KBJC 210815Z AUTO 26007KT 10SM CLR 02/M07 A2987 RMK AO2
Loading
Personal Weather Stations






























Interactive Weather Map New forecast layout! Learn more

10-Day Weather Forecast

Advertisements
Track Severe Weather on mobile